Tailwind — D5LG6 — position and weather

sailwx.info

Track history (hours):
 
Tides and Currents Weather Stations Pressure Air Temp Water Temp Dewpoint Dewpoint Depression Visibility Wind Speed Wind Dir Waves Ship Positions

Tailwind

Last reported at 2017-Dec-15 07:12 UTC. Time now 2017-Dec-17 14:01 UTC.
Position N 37°24' E 023°57'.

Length 149 m; draft 8 m.

Type: Ship. MMSI: 636017499.

Date/timePositionNaut miles runAvg speedWind from/ knotsBaromVisibWave heightAir tempDewpointWater temp
2017-Dec-15 07:12N 37°24' E 023°57'212.3
2017-Dec-15 07:00N 37°26' E 023°59'612.3
2017-Dec-15 06:29N 37°31' E 024°04'612.0
2017-Dec-15 06:00N 37°35' E 024°09'712.1
2017-Dec-15 05:25N 37°41' E 024°15'512.0
2017-Dec-15 05:00N 37°44' E 024°19'711.5
2017-Dec-15 04:25N 37°49' E 024°26'511.9
2017-Dec-15 04:00N 37°52' E 024°30'274 8.8
2017-Dec-13 21:00N 40°56' E 028°53'3 0.3
2017-Dec-13 10:26N 40°58' E 028°56'2 5.7
2017-Dec-13 10:00N 40°59' E 028°59'412 8.8
2017-Dec-11 11:24N 45°07' E 036°29'410.0
2017-Dec-11 11:00N 45°11' E 036°28'2 5.0
2017-Dec-11 10:30N 45°13' E 036°28'4 7.4
2017-Dec-11 09:55N 45°18' E 036°28'3 8.2
2017-Dec-11 09:30N 45°19' E 036°33'4 7.6
2017-Dec-11 09:00N 45°21' E 036°38'3 5.8
2017-Dec-11 08:30N 45°23' E 036°40'4 7.1
2017-Dec-11 08:01N 45°26' E 036°41'4 8.3
2017-Dec-11 07:31N 45°30' E 036°40'3 4.2
2017-Dec-11 06:51N 45°33' E 036°38'0 0.1
2017-Dec-11 06:18N 45°33' E 036°38'0 0.0
2017-Dec-11 06:00N 45°33' E 036°38'0 0.0
2017-Dec-11 04:24N 45°33' E 036°38'0 0.0
2017-Dec-11 04:00N 45°33' E 036°38'0 0.1
2017-Dec-11 03:30N 45°33' E 036°38'0 0.1
2017-Dec-11 03:00N 45°33' E 036°38'0 0.1
2017-Dec-11 01:06N 45°33' E 036°38'0 0.0
2017-Dec-11 00:36N 45°33' E 036°38'0 0.0
2017-Dec-11 00:18N 45°33' E 036°38'0 0.0
2017-Dec-10 23:15N 45°33' E 036°38'0 0.0
2017-Dec-10 22:51N 45°33' E 036°38'0 0.1
2017-Dec-10 22:30N 45°33' E 036°38'2 3.6
2017-Dec-10 22:00N 45°35' E 036°39'  
Track history (hours):
 
Tides and Currents Weather Stations Pressure Air Temp Water Temp Dewpoint Dewpoint Depression Visibility Wind Speed Wind Dir Waves Ship Positions

Tailwind

Last reported at 2017-Dec-15 07:12 UTC. Time now 2017-Dec-17 14:01 UTC.
Position N 37°24' E 023°57'.

Length 149 m; draft 8 m.

Type: Ship. MMSI: 636017499.

Date/timePositionNaut miles runAvg speedWind from/ knotsBaromVisibWave heightAir tempDewpointWater temp
2017-Dec-15 07:12N 37°24' E 023°57'212.3
2017-Dec-15 07:00N 37°26' E 023°59'612.3
2017-Dec-15 06:29N 37°31' E 024°04'612.0
2017-Dec-15 06:00N 37°35' E 024°09'712.1
2017-Dec-15 05:25N 37°41' E 024°15'512.0
2017-Dec-15 05:00N 37°44' E 024°19'711.5
2017-Dec-15 04:25N 37°49' E 024°26'511.9
2017-Dec-15 04:00N 37°52' E 024°30'274 8.8
2017-Dec-13 21:00N 40°56' E 028°53'3 0.3
2017-Dec-13 10:26N 40°58' E 028°56'2 5.7
2017-Dec-13 10:00N 40°59' E 028°59'412 8.8
2017-Dec-11 11:24N 45°07' E 036°29'410.0
2017-Dec-11 11:00N 45°11' E 036°28'2 5.0
2017-Dec-11 10:30N 45°13' E 036°28'4 7.4
2017-Dec-11 09:55N 45°18' E 036°28'3 8.2
2017-Dec-11 09:30N 45°19' E 036°33'4 7.6
2017-Dec-11 09:00N 45°21' E 036°38'3 5.8
2017-Dec-11 08:30N 45°23' E 036°40'4 7.1
2017-Dec-11 08:01N 45°26' E 036°41'4 8.3
2017-Dec-11 07:31N 45°30' E 036°40'3 4.2
2017-Dec-11 06:51N 45°33' E 036°38'0 0.1
2017-Dec-11 06:18N 45°33' E 036°38'0 0.0
2017-Dec-11 06:00N 45°33' E 036°38'0 0.0
2017-Dec-11 04:24N 45°33' E 036°38'0 0.0
2017-Dec-11 04:00N 45°33' E 036°38'0 0.1
2017-Dec-11 03:30N 45°33' E 036°38'0 0.1
2017-Dec-11 03:00N 45°33' E 036°38'0 0.1
2017-Dec-11 01:06N 45°33' E 036°38'0 0.0
2017-Dec-11 00:36N 45°33' E 036°38'0 0.0
2017-Dec-11 00:18N 45°33' E 036°38'0 0.0
2017-Dec-10 23:15N 45°33' E 036°38'0 0.0
2017-Dec-10 22:51N 45°33' E 036°38'0 0.1
2017-Dec-10 22:30N 45°33' E 036°38'2 3.6
2017-Dec-10 22:00N 45°35' E 036°39'  

Dump ship's entire track history